Time;durP1;ratioP1;P1;durP2;ratioP2;P2;SDS_P1;SDS_P2;PMS_P1;PMS_P2;Temp;Humidity;BMP_temperature;BMP_pressure;BME280_temperature;BME280_humidity;BME280_pressure;Samples;Min_cycle;Max_cycle;Signal;HPM_P1;HPM_P2
2022/06/11 00:01:25;;;;;;;;;;;21.80;66.20;;;;;;5083578;28;20020;-57
2022/06/11 00:03:54;;;;;;;0.95;0.47;;;21.80;66.00;;;;;;5082025;28;19919;-56
2022/06/11 00:06:20;;;;;;;0.50;0.50;;;21.90;66.10;;;;;;5082029;28;20025;-57
2022/06/11 00:08:46;;;;;;;0.30;0.30;;;21.90;66.10;;;;;;5083183;28;20039;-56
2022/06/11 00:11:13;;;;;;;0.50;0.50;;;21.90;65.90;;;;;;5083008;28;20511;-55
2022/06/11 00:13:39;;;;;;;0.50;0.50;;;22.00;65.90;;;;;;5083218;28;20035;-57
2022/06/11 00:16:06;;;;;;;0.60;0.60;;;22.00;65.80;;;;;;5082527;28;20303;-57
2022/06/11 00:18:32;;;;;;;0.50;0.50;;;22.00;65.70;;;;;;5083097;28;20027;-55
2022/06/11 00:20:59;;;;;;;0.55;0.55;;;22.00;65.60;;;;;;5082842;28;20288;-57
2022/06/11 00:23:26;;;;;;;0.70;0.57;;;22.00;65.50;;;;;;5081779;28;20055;-56
2022/06/11 00:25:52;;;;;;;0.40;0.40;;;22.10;65.60;;;;;;5082716;28;20033;-57
2022/06/11 00:28:19;;;;;;;0.40;0.40;;;22.10;65.40;;;;;;5082969;28;20078;-57
2022/06/11 00:30:45;;;;;;;0.53;0.40;;;22.10;65.30;;;;;;5078469;28;20333;-56
2022/06/11 00:33:11;;;;;;;0.40;0.40;;;22.10;65.30;;;;;;5062950;28;20037;-57
2022/06/11 00:35:38;;;;;;;0.60;0.60;;;22.20;65.20;;;;;;5062561;28;20474;-56
2022/06/11 00:38:04;;;;;;;0.30;0.30;;;22.20;65.20;;;;;;5066544;28;20039;-58
2022/06/11 00:40:35;;;;;;;0.40;0.40;;;22.20;65.10;;;;;;5082493;28;20051;-56
2022/06/11 00:43:02;;;;;;;0.65;0.65;;;22.30;65.00;;;;;;5067592;28;20029;-56
2022/06/11 00:45:40;;;;;;;0.50;0.50;;;22.20;64.80;;;;;;5062210;28;20025;-57
2022/06/11 00:48:14;;;;;;;0.40;0.40;;;22.30;64.80;;;;;;5062276;28;20025;-58
2022/06/11 00:50:44;;;;;;;0.60;0.60;;;22.30;64.80;;;;;;5067786;28;20084;-56
2022/06/11 00:53:24;;;;;;;0.43;0.43;;;22.30;64.60;;;;;;5081830;28;20035;-56
2022/06/11 00:55:50;;;;;;;0.40;0.40;;;22.30;64.50;;;;;;5082572;28;20512;-58
2022/06/11 00:58:22;;;;;;;0.57;0.40;;;22.30;64.40;;;;;;5064202;28;20032;-55
2022/06/11 01:00:54;;;;;;;0.40;0.40;;;22.40;64.40;;;;;;5082506;28;20033;-56
2022/06/11 01:03:24;;;;;;;0.50;0.50;;;22.40;64.20;;;;;;5081365;28;20032;-58
2022/06/11 01:05:56;;;;;;;0.40;0.40;;;22.40;64.20;;;;;;5085163;28;20032;-55
2022/06/11 01:08:36;;;;;;;0.40;0.40;;;22.40;64.10;;;;;;5065358;28;20031;-58
2022/06/11 01:11:17;;;;;;;0.50;0.50;;;22.40;64.00;;;;;;5064886;28;20040;-58
2022/06/11 01:13:47;;;;;;;1.00;0.50;;;22.40;63.80;;;;;;5062461;28;20068;-57
2022/06/11 01:16:33;;;;;;;0.50;0.50;;;22.50;63.80;;;;;;5062196;28;20047;-57
2022/06/11 01:19:15;;;;;;;0.40;0.40;;;22.50;63.80;;;;;;5062410;28;20093;-57
2022/06/11 01:21:50;;;;;;;0.50;0.50;;;22.50;63.60;;;;;;5058156;28;20027;-57
2022/06/11 01:24:16;;;;;;;0.52;0.52;;;22.50;63.50;;;;;;5082009;28;20068;-58
2022/06/11 01:26:48;;;;;;;0.40;0.40;;;22.50;63.40;;;;;;5081730;28;20111;-57
2022/06/11 01:29:26;;;;;;;0.40;0.38;;;22.50;64.10;;;;;;5064573;28;20087;-58
2022/06/11 01:32:01;;;;;;;0.50;0.50;;;22.60;63.30;;;;;;5081990;28;20058;-57
2022/06/11 01:34:33;;;;;;;0.45;0.45;;;22.60;63.20;;;;;;5066514;28;20039;-58
2022/06/11 01:37:06;;;;;;;0.63;0.40;;;22.60;63.10;;;;;;5097963;28;20078;-56
2022/06/11 01:39:48;;;;;;;0.50;0.43;;;22.60;62.90;;;;;;5093275;28;20025;-58
2022/06/11 01:42:16;;;;;;;0.50;0.50;;;22.60;62.90;;;;;;5056742;28;20028;-58
2022/06/11 01:44:43;;;;;;;0.30;0.30;;;22.60;62.80;;;;;;5067999;28;20024;-58
2022/06/11 01:47:12;;;;;;;0.40;0.38;;;22.60;62.70;;;;;;5085439;28;20031;-58
2022/06/11 01:49:42;;;;;;;0.50;0.50;;;22.60;62.60;;;;;;5085775;28;20166;-58
2022/06/11 01:52:42;;;;;;;0.40;0.40;;;22.60;62.40;;;;;;5085189;28;20024;-57
2022/06/11 01:55:33;;;;;;;0.40;0.40;;;22.60;62.30;;;;;;5085612;28;20037;-58
2022/06/11 01:58:03;;;;;;;0.40;0.40;;;22.70;62.20;;;;;;5085356;28;20028;-58
2022/06/11 02:00:42;;;;;;;0.95;0.40;;;22.70;62.20;;;;;;5067957;28;20029;-55
2022/06/11 02:03:26;;;;;;;0.60;0.43;;;22.70;62.00;;;;;;5068212;28;20071;-57
2022/06/11 02:06:12;;;;;;;0.60;0.45;;;22.70;61.90;;;;;;5085288;28;20028;-58
2022/06/11 02:08:39;;;;;;;0.52;0.52;;;22.70;61.80;;;;;;5066926;28;20025;-57
2022/06/11 02:11:34;;;;;;;0.60;0.50;;;22.70;61.70;;;;;;5074526;28;20033;-58
2022/06/11 02:14:05;;;;;;;0.40;0.40;;;22.70;61.60;;;;;;5047356;28;20029;-58
2022/06/11 02:16:44;;;;;;;0.47;0.43;;;22.70;61.50;;;;;;5065046;28;20028;-58
2022/06/11 02:19:31;;;;;;;0.40;0.40;;;22.70;61.30;;;;;;5064936;28;20029;-59
2022/06/11 02:22:07;;;;;;;1.58;0.50;;;22.70;61.20;;;;;;5063208;28;20055;-58
2022/06/11 02:24:38;;;;;;;0.60;0.45;;;22.70;61.10;;;;;;5066914;28;20056;-55
2022/06/11 02:27:09;;;;;;;0.40;0.40;;;22.70;61.00;;;;;;5067011;28;20029;-58
2022/06/11 02:29:36;;;;;;;0.40;0.40;;;22.70;60.90;;;;;;5084763;28;20032;-58
2022/06/11 02:32:10;;;;;;;0.50;0.50;;;22.70;60.80;;;;;;5084810;28;20043;-58
2022/06/11 02:34:43;;;;;;;0.40;0.40;;;22.80;60.70;;;;;;5047916;28;20032;-58
2022/06/11 02:37:22;;;;;;;0.60;0.43;;;22.80;60.60;;;;;;5080700;28;20079;-58
2022/06/11 02:39:48;;;;;;;0.60;0.50;;;22.80;60.50;;;;;;5088889;28;20028;-58
2022/06/11 02:42:16;;;;;;;0.98;0.70;;;22.80;61.20;;;;;;5046795;28;20021;-57
2022/06/11 02:44:42;;;;;;;0.40;0.40;;;22.80;61.10;;;;;;5064499;28;20108;-57
2022/06/11 02:47:10;;;;;;;0.67;0.50;;;22.80;60.30;;;;;;5064197;28;20092;-56
2022/06/11 02:49:36;;;;;;;0.47;0.47;;;22.80;60.30;;;;;;5046746;28;20029;-58
2022/06/11 02:52:08;;;;;;;0.45;0.45;;;22.80;60.90;;;;;;5080984;28;20047;-58
2022/06/11 02:54:34;;;;;;;0.50;0.50;;;22.80;60.10;;;;;;5083221;28;20500;-56
2022/06/11 02:57:01;;;;;;;0.50;0.50;;;22.80;60.00;;;;;;5069623;28;20028;-58
2022/06/11 02:59:27;;;;;;;0.57;0.57;;;22.80;60.00;;;;;;5084093;28;20039;-58
2022/06/11 03:01:54;;;;;;;0.50;0.50;;;22.80;60.00;;;;;;5084586;28;20024;-58
2022/06/11 03:04:23;;;;;;;0.50;0.50;;;22.80;60.00;;;;;;5083188;28;20029;-58
2022/06/11 03:06:50;;;;;;;0.50;0.50;;;22.80;59.90;;;;;;5083898;28;20028;-58
2022/06/11 03:09:18;;;;;;;0.50;0.50;;;22.80;59.90;;;;;;5084100;28;20028;-58
2022/06/11 03:11:45;;;;;;;1.45;0.60;;;22.80;59.90;;;;;;5079649;28;20044;-58
2022/06/11 03:14:11;;;;;;;0.47;0.47;;;22.80;59.80;;;;;;5064282;28;20035;-58
2022/06/11 03:16:37;;;;;;;1.10;0.60;;;22.80;59.80;;;;;;5064027;28;20035;-58
2022/06/11 03:19:05;;;;;;;0.60;0.60;;;22.80;59.80;;;;;;5064010;28;20097;-59
2022/06/11 03:21:31;;;;;;;0.50;0.50;;;22.80;59.80;;;;;;5076309;28;20036;-58
2022/06/11 03:23:57;;;;;;;0.95;0.63;;;22.80;59.80;;;;;;5083639;28;20044;-59
2022/06/11 03:26:23;;;;;;;0.80;0.43;;;22.80;59.80;;;;;;5084146;28;20485;-58
2022/06/11 03:28:49;;;;;;;0.63;0.63;;;22.80;59.80;;;;;;5083453;28;20032;-58
2022/06/11 03:31:15;;;;;;;0.60;0.60;;;22.80;59.70;;;;;;5084065;28;20092;-57
2022/06/11 03:33:41;;;;;;;0.50;0.50;;;22.80;59.70;;;;;;5084753;28;20035;-58
2022/06/11 03:36:09;;;;;;;0.75;0.68;;;22.80;59.70;;;;;;5065293;28;20092;-58
2022/06/11 03:38:36;;;;;;;0.50;0.50;;;22.80;59.70;;;;;;5083401;28;20024;-57
2022/06/11 03:41:04;;;;;;;0.60;0.60;;;22.80;59.70;;;;;;5079866;28;20048;-59
2022/06/11 03:43:30;;;;;;;0.65;0.65;;;22.80;59.70;;;;;;5076621;28;20028;-57
2022/06/11 03:45:56;;;;;;;0.70;0.55;;;22.80;59.80;;;;;;5077113;28;20078;-57
2022/06/11 03:48:22;;;;;;;0.55;0.55;;;22.80;59.70;;;;;;5076033;28;20024;-57
2022/06/11 03:50:48;;;;;;;0.65;0.65;;;22.80;59.70;;;;;;5076277;28;20028;-58
2022/06/11 03:53:14;;;;;;;0.60;0.60;;;22.80;59.60;;;;;;5076735;28;20036;-58
2022/06/11 03:55:42;;;;;;;0.73;0.73;;;22.80;59.70;;;;;;5076701;28;20032;-58
2022/06/11 03:58:08;;;;;;;;;;;22.80;59.70;;;;;;5076726;28;20032;-58
2022/06/11 04:03:19;;;;;;;0.70;0.70;;;22.80;59.70;;;;;;5075093;28;20629;-58
2022/06/11 04:05:45;;;;;;;0.60;0.50;;;22.80;59.70;;;;;;5076723;28;20033;-58
2022/06/11 04:08:11;;;;;;;0.60;0.60;;;22.80;59.70;;;;;;5076851;28;20590;-59
2022/06/11 04:10:38;;;;;;;0.67;0.67;;;22.80;59.70;;;;;;5078248;28;20037;-58
2022/06/11 04:13:04;;;;;;;0.70;0.70;;;22.80;59.70;;;;;;5083287;28;20088;-59
2022/06/11 04:15:31;;;;;;;1.02;0.65;;;22.80;59.70;;;;;;5083290;28;20020;-58
2022/06/11 04:17:57;;;;;;;0.63;0.63;;;22.80;59.70;;;;;;5083178;28;20039;-59
2022/06/11 04:20:23;;;;;;;0.88;0.60;;;22.80;59.70;;;;;;5048508;28;20469;-58
2022/06/11 04:22:49;;;;;;;0.70;0.63;;;22.80;59.60;;;;;;5082873;28;20070;-58
2022/06/11 04:25:16;;;;;;;0.50;0.50;;;22.80;59.70;;;;;;5083142;28;20039;-58
2022/06/11 04:27:42;;;;;;;0.60;0.50;;;22.80;59.70;;;;;;5083105;28;20024;-58
2022/06/11 04:30:09;;;;;;;0.98;0.70;;;22.80;59.70;;;;;;5082390;28;20112;-59
2022/06/11 04:32:35;;;;;;;0.70;0.70;;;22.80;59.70;;;;;;5078474;28;20044;-58
2022/06/11 04:35:01;;;;;;;0.70;0.70;;;22.80;59.70;;;;;;5062861;28;20029;-59
2022/06/11 04:37:28;;;;;;;0.60;0.60;;;22.80;59.70;;;;;;5061561;28;20040;-58
2022/06/11 04:39:55;;;;;;;;;;;22.80;59.70;;;;;;5093882;28;20016;-58
2022/06/11 04:42:22;;;;;;;0.60;0.60;;;22.80;59.70;;;;;;5072994;28;19972;-58
2022/06/11 04:44:48;;;;;;;2.60;0.80;;;22.80;59.70;;;;;;5062731;28;20025;-58
2022/06/11 04:47:17;;;;;;;0.70;0.70;;;22.80;59.70;;;;;;5062687;28;20033;-58
2022/06/11 04:49:44;;;;;;;0.82;0.68;;;22.80;59.80;;;;;;5082453;28;20025;-57
2022/06/11 04:52:10;;;;;;;1.05;0.90;;;22.80;59.80;;;;;;5082616;28;20040;-58
2022/06/11 04:54:36;;;;;;;1.20;0.77;;;22.80;59.80;;;;;;5082662;28;20029;-58
2022/06/11 04:57:03;;;;;;;0.82;0.70;;;22.80;59.80;;;;;;5082735;28;20028;-58
2022/06/11 04:59:32;;;;;;;0.90;0.60;;;22.80;59.80;;;;;;5082245;28;20032;-58
2022/06/11 05:01:59;;;;;;;1.67;0.70;;;22.80;59.80;;;;;;5082417;28;20768;-58
2022/06/11 05:04:25;;;;;;;0.88;0.60;;;22.80;59.90;;;;;;5081754;28;20047;-59
2022/06/11 05:06:51;;;;;;;0.82;0.73;;;22.80;59.90;;;;;;5082328;28;20032;-58
2022/06/11 05:09:18;;;;;;;0.60;0.60;;;22.80;59.90;;;;;;5084755;28;20088;-58
2022/06/11 05:11:44;;;;;;;1.00;0.90;;;22.80;59.90;;;;;;5074447;28;20036;-58
2022/06/11 05:14:11;;;;;;;0.60;0.60;;;22.80;60.00;;;;;;5086482;28;20032;-58
2022/06/11 05:16:37;;;;;;;0.88;0.70;;;22.80;60.00;;;;;;5086525;28;20024;-58
2022/06/11 05:19:03;;;;;;;0.70;0.70;;;22.80;60.00;;;;;;5068645;28;20025;-58
2022/06/11 05:21:29;;;;;;;0.60;0.60;;;22.80;60.00;;;;;;5086015;28;20029;-57
2022/06/11 05:23:55;;;;;;;0.63;0.63;;;22.70;59.90;;;;;;5086510;28;20155;-58
2022/06/11 05:26:24;;;;;;;0.88;0.88;;;22.80;60.10;;;;;;5086115;28;20039;-58
2022/06/11 05:28:50;;;;;;;1.02;0.82;;;22.70;60.00;;;;;;5068142;28;20025;-59
2022/06/11 05:31:16;;;;;;;0.70;0.70;;;22.70;60.10;;;;;;5085604;28;20513;-57
2022/06/11 05:33:43;;;;;;;1.67;0.80;;;22.70;60.10;;;;;;5072557;28;20071;-58
2022/06/11 05:36:09;;;;;;;0.60;0.60;;;22.70;60.20;;;;;;5066159;28;20035;-58
2022/06/11 05:38:35;;;;;;;0.80;0.80;;;22.70;60.20;;;;;;5053211;28;20092;-57
2022/06/11 05:41:01;;;;;;;1.13;0.77;;;22.70;60.30;;;;;;5085386;28;20558;-59
2022/06/11 05:43:28;;;;;;;0.60;0.60;;;22.70;60.20;;;;;;5088520;28;20058;-59
2022/06/11 05:45:58;;;;;;;0.98;0.88;;;22.70;60.20;;;;;;5086063;28;20020;-59
2022/06/11 05:48:27;;;;;;;0.70;0.63;;;22.70;60.30;;;;;;5081886;28;20032;-58
2022/06/11 05:50:54;;;;;;;0.70;0.70;;;22.70;60.30;;;;;;5061279;28;20029;-58
2022/06/11 05:53:22;;;;;;;0.60;0.60;;;22.70;60.30;;;;;;5078192;28;20040;-59
2022/06/11 05:55:48;;;;;;;0.60;0.60;;;22.70;60.30;;;;;;5043968;28;20088;-59
2022/06/11 05:58:17;;;;;;;0.67;0.60;;;22.70;60.30;;;;;;5060681;28;20029;-58
2022/06/11 06:00:44;;;;;;;1.48;0.77;;;22.70;60.30;;;;;;5060432;28;20277;-59
2022/06/11 06:03:10;;;;;;;0.70;0.65;;;22.70;60.30;;;;;;5077553;28;20052;-58
2022/06/11 06:05:36;;;;;;;1.08;0.68;;;22.70;60.30;;;;;;5078833;28;20028;-59
2022/06/11 06:08:02;;;;;;;0.88;0.70;;;22.70;60.30;;;;;;5078887;28;20021;-59
2022/06/11 06:10:28;;;;;;;0.80;0.80;;;22.70;60.30;;;;;;5077614;28;20025;-58
2022/06/11 06:12:55;;;;;;;1.02;0.80;;;22.70;60.30;;;;;;5078871;28;20048;-58
2022/06/11 06:15:25;;;;;;;0.73;0.70;;;22.70;60.30;;;;;;5078377;28;20044;-58
2022/06/11 06:17:52;;;;;;;0.77;0.77;;;22.70;60.40;;;;;;5077873;28;20052;-58
2022/06/11 06:20:18;;;;;;;1.17;0.85;;;22.70;60.40;;;;;;5084232;28;20017;-59
2022/06/11 06:22:44;;;;;;;0.70;0.65;;;22.70;60.40;;;;;;5084839;28;20033;-59
2022/06/11 06:25:19;;;;;;;0.85;0.80;;;22.70;60.40;;;;;;5085140;28;20036;-59
2022/06/11 06:27:45;;;;;;;0.77;0.70;;;22.70;60.50;;;;;;5085347;28;20054;-59
2022/06/11 06:30:12;;;;;;;1.10;0.80;;;22.60;60.40;;;;;;5085144;28;20040;-58
2022/06/11 06:32:38;;;;;;;0.70;0.70;;;22.70;60.40;;;;;;5083957;28;20101;-57
2022/06/11 06:35:04;;;;;;;1.08;0.88;;;22.60;60.40;;;;;;5087666;28;20221;-58
2022/06/11 06:37:32;;;;;;;0.80;0.80;;;22.60;60.40;;;;;;5085087;28;20028;-58
2022/06/11 06:39:59;;;;;;;0.90;0.90;;;22.60;60.50;;;;;;5067215;28;20047;-58
2022/06/11 06:42:25;;;;;;;0.80;0.80;;;22.60;60.50;;;;;;5074213;28;20038;-58
2022/06/11 06:44:51;;;;;;;1.00;0.90;;;22.60;60.60;;;;;;5065015;28;20055;-59
2022/06/11 06:47:17;;;;;;;1.05;0.70;;;22.60;60.60;;;;;;5065182;28;20088;-59
2022/06/11 06:49:43;;;;;;;0.70;0.70;;;22.60;60.60;;;;;;5084774;28;20050;-59
2022/06/11 06:52:09;;;;;;;1.23;0.77;;;22.60;60.60;;;;;;5088977;28;20123;-58
2022/06/11 06:54:35;;;;;;;1.05;0.80;;;22.60;60.60;;;;;;5104663;28;20062;-59
2022/06/11 06:57:01;;;;;;;0.70;0.70;;;22.60;60.60;;;;;;5104772;28;20039;-59
2022/06/11 06:59:27;;;;;;;0.70;0.70;;;22.60;60.60;;;;;;5087428;28;20020;-58
2022/06/11 07:01:53;;;;;;;0.88;0.70;;;22.60;60.60;;;;;;5090928;28;20109;-59
2022/06/11 07:04:20;;;;;;;1.13;1.02;;;22.60;61.00;;;;;;5065605;28;20021;-58
2022/06/11 07:06:46;;;;;;;0.70;0.70;;;22.60;60.70;;;;;;5082954;28;20092;-59
2022/06/11 07:09:12;;;;;;;0.68;0.68;;;22.60;60.70;;;;;;5084326;28;20025;-58
2022/06/11 07:11:38;;;;;;;1.00;0.90;;;22.60;60.70;;;;;;5084237;28;20024;-58
2022/06/11 07:14:04;;;;;;;2.58;0.90;;;22.60;60.70;;;;;;5083959;28;20024;-59
2022/06/11 07:16:32;;;;;;;0.80;0.80;;;22.60;60.60;;;;;;5083162;28;20040;-58
2022/06/11 07:19:02;;;;;;;0.70;0.70;;;22.60;60.60;;;;;;5060637;28;20024;-58
2022/06/11 07:21:35;;;;;;;1.00;0.88;;;22.60;60.70;;;;;;5066431;28;20079;-59
2022/06/11 07:24:04;;;;;;;1.08;0.70;;;22.60;60.50;;;;;;5083738;28;20063;-58
2022/06/11 07:26:36;;;;;;;1.30;0.90;;;22.60;60.60;;;;;;5083877;28;20024;-58
2022/06/11 07:29:09;;;;;;;0.77;0.77;;;22.50;60.60;;;;;;5084016;28;20025;-58
2022/06/11 07:31:35;;;;;;;0.93;0.80;;;22.50;60.60;;;;;;5065946;28;20039;-59
2022/06/11 07:34:01;;;;;;;0.85;0.80;;;22.50;60.60;;;;;;5078302;28;20037;-59
2022/06/11 07:36:28;;;;;;;1.05;0.80;;;22.50;60.60;;;;;;5083881;28;20043;-58
2022/06/11 07:38:54;;;;;;;1.42;0.80;;;22.50;60.60;;;;;;5083946;28;20039;-59
2022/06/11 07:41:20;;;;;;;1.27;1.15;;;22.50;60.60;;;;;;5083246;28;20021;-59
2022/06/11 07:43:46;;;;;;;0.82;0.70;;;22.50;60.60;;;;;;5083465;28;20791;-59
2022/06/11 07:46:12;;;;;;;1.10;1.00;;;22.50;60.60;;;;;;5083774;28;20024;-57
2022/06/11 07:48:38;;;;;;;1.00;0.70;;;22.50;61.30;;;;;;5065788;28;20020;-58
2022/06/11 07:51:04;;;;;;;0.90;0.80;;;22.50;60.60;;;;;;5065109;28;20036;-59
2022/06/11 07:53:31;;;;;;;0.80;0.80;;;22.50;60.60;;;;;;5086110;28;20042;-59
2022/06/11 07:55:58;;;;;;;0.88;0.80;;;22.50;60.70;;;;;;5082973;28;20058;-60
2022/06/11 07:58:30;;;;;;;1.20;1.02;;;22.50;60.60;;;;;;5083568;28;20047;-57
2022/06/11 08:01:00;;;;;;;0.95;0.90;;;22.50;60.70;;;;;;5083288;28;20021;-59
2022/06/11 08:03:27;;;;;;;1.15;1.05;;;22.50;60.70;;;;;;5071448;28;20029;-58
2022/06/11 08:05:54;;;;;;;0.73;0.70;;;22.50;60.70;;;;;;5062597;28;20516;-59
2022/06/11 08:08:20;;;;;;;0.88;0.85;;;22.50;60.70;;;;;;5063435;28;20076;-59
2022/06/11 08:10:47;;;;;;;1.02;0.93;;;22.40;60.60;;;;;;5075928;28;20062;-59
2022/06/11 08:13:13;;;;;;;1.25;0.80;;;22.40;60.60;;;;;;5083120;28;20066;-57
2022/06/11 08:15:40;;;;;;;1.27;0.90;;;22.40;60.60;;;;;;5083014;28;20028;-59
2022/06/11 08:18:07;;;;;;;0.70;0.70;;;22.40;60.70;;;;;;5082937;28;20028;-59
2022/06/11 08:20:34;;;;;;;1.00;0.80;;;22.40;60.70;;;;;;5082850;28;20029;-59
2022/06/11 08:23:01;;;;;;;1.00;0.90;;;22.40;60.70;;;;;;5082911;28;20281;-59
2022/06/11 08:25:27;;;;;;;0.70;0.70;;;22.40;60.80;;;;;;5087841;28;20024;-59
2022/06/11 08:27:54;;;;;;;1.00;0.90;;;22.40;60.80;;;;;;5103113;28;20032;-59
2022/06/11 08:30:21;;;;;;;0.73;0.73;;;22.40;60.80;;;;;;5084754;28;20028;-59
2022/06/11 08:32:47;;;;;;;0.90;0.90;;;22.40;60.90;;;;;;5076410;28;20033;-59
2022/06/11 08:35:14;;;;;;;0.85;0.80;;;22.40;60.90;;;;;;5062942;28;20080;-58
2022/06/11 08:37:40;;;;;;;0.80;0.80;;;22.40;60.90;;;;;;5062633;28;20055;-59
2022/06/11 08:40:08;;;;;;;1.17;0.77;;;22.40;60.90;;;;;;5064419;28;20158;-59
2022/06/11 08:42:39;;;;;;;1.00;0.90;;;22.40;61.00;;;;;;5056729;28;20096;-59
2022/06/11 08:45:15;;;;;;;0.80;0.80;;;22.40;60.90;;;;;;5057550;28;20017;-57
2022/06/11 08:47:44;;;;;;;1.08;0.75;;;22.40;61.00;;;;;;5075300;28;20059;-59
2022/06/11 08:50:13;;;;;;;0.80;0.80;;;22.40;61.00;;;;;;5057170;28;20028;-58
2022/06/11 08:52:39;;;;;;;0.98;0.90;;;22.40;60.90;;;;;;5075386;28;20119;-59
2022/06/11 08:55:06;;;;;;;2.05;0.90;;;22.40;61.00;;;;;;5076070;28;20033;-59
2022/06/11 08:57:51;;;;;;;0.83;0.83;;;22.40;61.00;;;;;;5057218;28;20028;-60
2022/06/11 09:00:18;;;;;;;0.73;0.70;;;22.40;61.10;;;;;;5075041;28;20027;-56
2022/06/11 09:03:08;;;;;;;1.85;0.90;;;22.40;61.00;;;;;;5074255;28;20042;-59
2022/06/11 09:05:57;;;;;;;0.88;0.88;;;22.40;60.90;;;;;;5074520;28;20030;-59
2022/06/11 09:08:51;;;;;;;0.98;0.90;;;22.30;61.00;;;;;;5074392;28;20040;-59
2022/06/11 09:11:47;;;;;;;0.70;0.70;;;22.30;61.00;;;;;;5079103;28;20082;-59
2022/06/11 09:14:14;;;;;;;1.63;1.08;;;22.40;61.10;;;;;;5082248;28;20020;-57
2022/06/11 09:17:07;;;;;;;0.90;0.90;;;22.30;61.10;;;;;;5082025;28;20378;-58
2022/06/11 09:20:13;;;;;;;1.00;0.90;;;22.30;61.10;;;;;;5064589;28;20024;-59
2022/06/11 09:23:02;;;;;;;0.90;0.90;;;22.30;61.10;;;;;;5082213;28;20054;-56
2022/06/11 09:25:57;;;;;;;0.80;0.80;;;22.30;61.30;;;;;;5082284;28;20064;-59
2022/06/11 09:28:38;;;;;;;1.20;0.90;;;22.30;61.10;;;;;;5082107;28;20037;-58
2022/06/11 09:31:14;;;;;;;0.90;0.90;;;22.30;61.10;;;;;;5082258;28;20634;-59
2022/06/11 09:34:10;;;;;;;1.00;1.00;;;22.30;60.70;;;;;;5068627;28;20037;-59
2022/06/11 09:36:40;;;;;;;1.13;0.88;;;22.30;61.10;;;;;;5062002;28;20040;-56
2022/06/11 09:39:24;;;;;;;3.13;0.93;;;22.30;61.10;;;;;;5062257;28;20033;-58
2022/06/11 09:41:57;;;;;;;1.90;0.82;;;22.30;61.20;;;;;;5067160;28;20039;-59
2022/06/11 09:44:38;;;;;;;1.95;0.80;;;22.30;61.10;;;;;;5082332;28;20576;-59
2022/06/11 09:47:05;;;;;;;1.10;1.00;;;22.20;61.10;;;;;;5084236;28;20033;-59
2022/06/11 09:49:34;;;;;;;1.00;0.82;;;22.20;61.20;;;;;;5083465;28;20024;-59
2022/06/11 09:52:07;;;;;;;0.82;0.82;;;22.30;61.20;;;;;;5064286;28;20025;-59
2022/06/11 09:54:54;;;;;;;1.00;0.90;;;22.20;61.10;;;;;;5083129;28;20088;-58
2022/06/11 09:57:24;;;;;;;0.80;0.80;;;22.20;61.10;;;;;;5085150;28;20024;-59
2022/06/11 10:00:13;;;;;;;0.98;0.93;;;22.20;61.10;;;;;;5085849;28;20418;-59
2022/06/11 10:06:08;;;;;;;1.23;1.05;;;22.20;61.20;;;;;;5041038;28;20033;-59
2022/06/11 10:08:48;;;;;;;0.98;0.90;;;22.20;61.10;;;;;;5047438;28;20025;-59
2022/06/11 10:11:44;;;;;;;0.82;0.82;;;22.20;61.20;;;;;;5081603;28;20181;-59
2022/06/11 10:14:28;;;;;;;1.10;1.00;;;22.20;61.30;;;;;;5063822;28;20041;-59
2022/06/11 10:17:14;;;;;;;0.75;0.75;;;22.20;61.40;;;;;;5065486;28;20040;-57
2022/06/11 10:20:02;;;;;;;1.23;0.80;;;22.20;61.30;;;;;;5054476;28;20444;-59
2022/06/11 10:22:51;;;;;;;0.70;0.70;;;22.20;61.40;;;;;;5064917;28;20029;-59
2022/06/11 10:25:39;;;;;;;0.90;0.73;;;22.20;61.40;;;;;;5051327;28;20044;-59
2022/06/11 10:28:14;;;;;;;1.10;1.00;;;22.20;61.40;;;;;;5064718;28;20052;-59
2022/06/11 10:30:47;;;;;;;1.00;1.00;;;22.20;61.30;;;;;;5052036;28;20033;-56
2022/06/11 10:33:45;;;;;;;1.08;0.80;;;22.10;61.20;;;;;;5078337;28;20032;-59
2022/06/11 10:36:16;;;;;;;1.30;1.17;;;22.10;61.10;;;;;;5047279;28;20032;-59
2022/06/11 10:39:26;;;;;;;1.13;1.02;;;22.10;61.20;;;;;;5064697;28;20032;-59
2022/06/11 10:42:05;;;;;;;0.90;0.90;;;22.10;61.40;;;;;;4993558;28;20042;-59
2022/06/11 10:44:39;;;;;;;0.95;0.90;;;22.10;61.20;;;;;;4979390;28;20060;-60
2022/06/11 10:47:35;;;;;;;0.80;0.80;;;22.10;61.10;;;;;;4977095;28;20034;-59
2022/06/11 10:50:17;;;;;;;1.02;0.93;;;22.10;61.40;;;;;;4994018;28;20042;-59
2022/06/11 10:52:49;;;;;;;1.90;0.90;;;22.10;61.10;;;;;;4980451;28;20039;-58
2022/06/11 10:55:30;;;;;;;1.15;1.05;;;22.10;61.20;;;;;;4994866;28;20045;-59
2022/06/11 10:57:57;;;;;;;1.10;1.00;;;22.10;61.30;;;;;;4994762;28;20042;-58
2022/06/11 11:00:30;;;;;;;1.00;0.80;;;22.10;61.20;;;;;;4980117;28;20423;-59
2022/06/11 11:03:12;;;;;;;0.90;0.90;;;22.10;61.20;;;;;;4980311;28;20027;-59
2022/06/11 11:05:46;;;;;;;0.82;0.80;;;22.10;61.30;;;;;;4963675;28;20042;-59
2022/06/11 11:08:13;;;;;;;1.23;1.05;;;22.10;61.20;;;;;;4978589;28;20049;-60
2022/06/11 11:10:48;;;;;;;0.95;0.95;;;22.10;61.30;;;;;;4996981;28;20038;-59
2022/06/11 11:13:29;;;;;;;0.85;0.85;;;22.10;61.20;;;;;;5002174;28;20078;-59
2022/06/11 11:16:22;;;;;;;1.08;0.95;;;22.10;61.10;;;;;;5001800;28;20046;-59
2022/06/11 11:19:17;;;;;;;2.40;0.93;;;22.00;61.20;;;;;;5066349;28;20033;-58
2022/06/11 11:22:04;;;;;;;1.00;0.90;;;22.10;61.30;;;;;;5065876;28;20492;-56
2022/06/11 11:24:41;;;;;;;0.80;0.80;;;22.00;61.00;;;;;;5083753;28;20052;-59
2022/06/11 11:27:41;;;;;;;0.98;0.90;;;22.00;61.00;;;;;;5049720;28;20103;-59
2022/06/11 11:30:22;;;;;;;0.90;0.90;;;22.00;61.20;;;;;;5066356;28;20115;-58
2022/06/11 11:32:48;;;;;;;0.77;0.77;;;22.00;61.20;;;;;;5046557;28;20048;-58
2022/06/11 11:35:23;;;;;;;1.15;1.10;;;22.00;61.20;;;;;;5045703;28;20021;-59
2022/06/11 11:38:13;;;;;;;1.55;0.95;;;22.00;61.30;;;;;;5063632;28;20036;-59
2022/06/11 11:41:00;;;;;;;1.10;1.00;;;22.00;61.30;;;;;;5062995;28;20029;-59
2022/06/11 11:43:36;;;;;;;1.00;0.90;;;22.00;61.20;;;;;;5045735;28;20025;-58
2022/06/11 11:46:22;;;;;;;0.98;0.93;;;22.00;61.30;;;;;;5063380;28;20035;-59
2022/06/11 11:48:55;;;;;;;1.00;0.90;;;22.00;61.20;;;;;;5076317;28;20544;-59
2022/06/11 11:51:28;;;;;;;1.00;0.90;;;22.00;61.30;;;;;;5065338;28;20040;-58
2022/06/11 11:54:00;;;;;;;1.10;1.00;;;22.00;61.30;;;;;;5057620;28;20611;-58
2022/06/11 11:56:54;;;;;;;0.90;0.90;;;22.00;61.30;;;;;;5082999;28;20067;-58
2022/06/11 11:59:26;;;;;;;1.17;0.98;;;22.00;61.50;;;;;;5082954;28;20092;-56
2022/06/11 12:02:17;;;;;;;1.20;1.10;;;22.00;61.40;;;;;;5065189;28;20056;-58
2022/06/11 12:05:15;;;;;;;1.20;1.00;;;22.00;61.40;;;;;;5031250;28;20048;-58
2022/06/11 12:07:44;;;;;;;1.25;1.15;;;22.00;61.40;;;;;;5064777;28;20497;-58
2022/06/11 12:10:36;;;;;;;1.52;1.15;;;22.00;61.50;;;;;;5082152;28;20036;-58
2022/06/11 12:13:03;;;;;;;1.25;1.10;;;22.00;61.40;;;;;;5083089;28;20037;-58
2022/06/11 12:15:32;;;;;;;1.10;1.02;;;22.00;61.40;;;;;;5065044;28;20021;-58
2022/06/11 12:18:17;;;;;;;1.02;0.98;;;22.00;62.20;;;;;;5064146;28;20045;-59
2022/06/11 12:20:50;;;;;;;0.95;0.85;;;21.90;61.40;;;;;;5064550;28;20024;-57
2022/06/11 12:23:35;;;;;;;0.93;0.93;;;21.90;61.30;;;;;;5082690;28;20044;-58
2022/06/11 12:26:06;;;;;;;0.98;0.70;;;22.00;61.40;;;;;;5082431;28;20783;-58
2022/06/11 12:28:54;;;;;;;0.80;0.80;;;21.90;61.40;;;;;;5082841;28;20024;-58
2022/06/11 12:31:20;;;;;;;1.05;0.95;;;22.00;61.50;;;;;;5082553;28;20064;-55
2022/06/11 12:33:46;;;;;;;1.00;0.90;;;21.90;61.40;;;;;;5050761;28;20561;-58
2022/06/11 12:36:40;;;;;;;1.15;1.05;;;21.90;61.50;;;;;;5062420;28;20036;-57
2022/06/11 12:39:15;;;;;;;1.25;0.90;;;21.90;61.50;;;;;;5056632;28;20137;-57
2022/06/11 12:41:50;;;;;;;1.25;1.00;;;21.90;61.40;;;;;;5070606;28;20055;-58
2022/06/11 12:44:25;;;;;;;1.13;1.02;;;21.90;61.40;;;;;;5067349;28;20035;-58
2022/06/11 12:46:53;;;;;;;1.10;1.00;;;21.90;61.40;;;;;;5082169;28;20025;-57
2022/06/11 12:49:57;;;;;;;1.00;1.00;;;21.90;61.30;;;;;;5064035;28;20028;-53
2022/06/11 12:52:35;;;;;;;0.90;0.90;;;21.90;61.40;;;;;;5082458;28;20029;-58
2022/06/11 12:55:17;;;;;;;0.85;0.85;;;21.90;61.30;;;;;;5085350;28;20024;-58
2022/06/11 12:57:57;;;;;;;1.15;1.05;;;21.90;61.20;;;;;;5082232;28;20032;-57
2022/06/11 13:00:29;;;;;;;1.58;1.00;;;21.90;61.30;;;;;;5065882;28;20021;-58
2022/06/11 13:03:24;;;;;;;1.00;0.90;;;21.90;61.30;;;;;;5057579;28;20033;-57
2022/06/11 13:06:16;;;;;;;0.90;0.90;;;21.90;61.40;;;;;;5033034;28;20029;-57
2022/06/11 13:09:04;;;;;;;1.00;0.95;;;21.90;61.40;;;;;;5047550;28;20034;-57
2022/06/11 13:11:39;;;;;;;0.88;0.85;;;21.90;61.50;;;;;;5081463;28;20043;-58
2022/06/11 13:14:08;;;;;;;1.10;1.00;;;21.90;61.50;;;;;;5064565;28;20017;-57
2022/06/11 13:16:40;;;;;;;0.80;0.80;;;21.90;61.60;;;;;;5082220;28;20025;-57
2022/06/11 13:19:22;;;;;;;0.70;0.70;;;21.90;61.70;;;;;;5044849;28;20047;-57
2022/06/11 13:22:02;;;;;;;0.95;0.85;;;21.90;61.90;;;;;;5061925;28;20052;-56